sensor_id;sensor_type;location;lat;lon;timestamp;pressure;altitude;pressure_sealevel;temperature;humidity
35694;BME280;21812;55.536;37.664;2024-02-28T00:01:37;100866.25;;;2.51;46.80
35694;BME280;21812;55.536;37.664;2024-02-28T00:04:03;100869.50;;;3.27;48.05
35694;BME280;21812;55.536;37.664;2024-02-28T00:06:29;100865.31;;;4.05;41.52
35694;BME280;21812;55.536;37.664;2024-02-28T00:08:55;100856.91;;;4.00;41.58
35694;BME280;21812;55.536;37.664;2024-02-28T00:11:21;100860.41;;;4.00;42.07
35694;BME280;21812;55.536;37.664;2024-02-28T00:13:46;100853.44;;;3.88;45.34
35694;BME280;21812;55.536;37.664;2024-02-28T00:16:12;100861.47;;;4.20;42.84
35694;BME280;21812;55.536;37.664;2024-02-28T00:18:38;100798.78;;;4.55;41.24
35694;BME280;21812;55.536;37.664;2024-02-28T00:21:03;100837.56;;;4.22;38.98
35694;BME280;21812;55.536;37.664;2024-02-28T00:23:29;100843.44;;;4.37;41.45
35694;BME280;21812;55.536;37.664;2024-02-28T00:25:56;100838.78;;;4.29;44.38
35694;BME280;21812;55.536;37.664;2024-02-28T00:28:21;100828.09;;;3.97;42.02
35694;BME280;21812;55.536;37.664;2024-02-28T00:30:47;100830.84;;;3.95;48.27
35694;BME280;21812;55.536;37.664;2024-02-28T00:33:12;100845.38;;;3.78;40.59
35694;BME280;21812;55.536;37.664;2024-02-28T00:35:39;100797.19;;;2.94;39.17
35694;BME280;21812;55.536;37.664;2024-02-28T00:38:05;100855.19;;;3.53;40.25
35694;BME280;21812;55.536;37.664;2024-02-28T00:40:31;100837.47;;;3.20;41.35
35694;BME280;21812;55.536;37.664;2024-02-28T00:42:57;100851.31;;;3.35;40.24
35694;BME280;21812;55.536;37.664;2024-02-28T00:45:23;100854.59;;;3.15;41.30
35694;BME280;21812;55.536;37.664;2024-02-28T00:47:49;100846.13;;;2.98;39.70
35694;BME280;21812;55.536;37.664;2024-02-28T00:50:15;100840.19;;;2.83;44.75
35694;BME280;21812;55.536;37.664;2024-02-28T00:52:40;100860.47;;;3.53;42.61
35694;BME280;21812;55.536;37.664;2024-02-28T00:55:07;100852.34;;;3.79;39.47
35694;BME280;21812;55.536;37.664;2024-02-28T00:57:33;100851.03;;;3.27;40.72
35694;BME280;21812;55.536;37.664;2024-02-28T00:59:59;100851.19;;;3.48;40.34
35694;BME280;21812;55.536;37.664;2024-02-28T01:02:25;100834.47;;;3.25;40.36
35694;BME280;21812;55.536;37.664;2024-02-28T01:04:51;100846.69;;;2.90;40.00
35694;BME280;21812;55.536;37.664;2024-02-28T01:07:16;100848.75;;;2.98;42.76
35694;BME280;21812;55.536;37.664;2024-02-28T01:09:42;100851.91;;;2.79;41.69
35694;BME280;21812;55.536;37.664;2024-02-28T01:12:08;100844.75;;;3.17;44.80
35694;BME280;21812;55.536;37.664;2024-02-28T01:14:33;100846.34;;;3.77;41.19
35694;BME280;21812;55.536;37.664;2024-02-28T01:16:59;100836.63;;;4.00;39.15
35694;BME280;21812;55.536;37.664;2024-02-28T01:19:25;100840.13;;;3.31;40.41
35694;BME280;21812;55.536;37.664;2024-02-28T01:21:51;100828.06;;;2.81;41.95
35694;BME280;21812;55.536;37.664;2024-02-28T01:24:16;100840.75;;;2.51;41.24
35694;BME280;21812;55.536;37.664;2024-02-28T01:26:42;100831.84;;;3.01;42.25
35694;BME280;21812;55.536;37.664;2024-02-28T01:29:08;100830.13;;;3.12;41.29
35694;BME280;21812;55.536;37.664;2024-02-28T01:31:33;100834.22;;;3.17;40.42
35694;BME280;21812;55.536;37.664;2024-02-28T01:33:59;100834.59;;;3.35;41.04
35694;BME280;21812;55.536;37.664;2024-02-28T01:36:25;100839.19;;;3.44;40.81
35694;BME280;21812;55.536;37.664;2024-02-28T01:38:52;100840.91;;;3.56;40.25
35694;BME280;21812;55.536;37.664;2024-02-28T01:41:17;100817.97;;;4.13;48.07
35694;BME280;21812;55.536;37.664;2024-02-28T01:43:43;100820.66;;;3.90;41.35
35694;BME280;21812;55.536;37.664;2024-02-28T01:46:25;100828.69;;;3.89;38.89
35694;BME280;21812;55.536;37.664;2024-02-28T01:48:52;100823.03;;;3.48;42.10
35694;BME280;21812;55.536;37.664;2024-02-28T01:51:18;100794.44;;;3.65;46.14
35694;BME280;21812;55.536;37.664;2024-02-28T01:53:45;100813.91;;;4.09;43.51
35694;BME280;21812;55.536;37.664;2024-02-28T01:56:12;100779.44;;;3.99;39.31
35694;BME280;21812;55.536;37.664;2024-02-28T01:58:39;100810.81;;;4.59;43.38
35694;BME280;21812;55.536;37.664;2024-02-28T02:01:05;100812.06;;;4.76;39.26
35694;BME280;21812;55.536;37.664;2024-02-28T02:03:32;100806.06;;;4.74;44.29
35694;BME280;21812;55.536;37.664;2024-02-28T02:06:02;100793.88;;;4.50;39.04
35694;BME280;21812;55.536;37.664;2024-02-28T02:08:27;100809.25;;;4.56;40.25
35694;BME280;21812;55.536;37.664;2024-02-28T02:10:53;100781.00;;;3.90;41.81
35694;BME280;21812;55.536;37.664;2024-02-28T02:13:19;100815.38;;;4.02;40.14
35694;BME280;21812;55.536;37.664;2024-02-28T02:15:45;100813.31;;;4.60;41.96
35694;BME280;21812;55.536;37.664;2024-02-28T02:18:11;100816.84;;;4.61;39.16
35694;BME280;21812;55.536;37.664;2024-02-28T02:20:41;100819.53;;;4.38;39.54
35694;BME280;21812;55.536;37.664;2024-02-28T02:23:09;100820.28;;;4.73;38.20
35694;BME280;21812;55.536;37.664;2024-02-28T02:25:46;100819.84;;;5.42;36.65
35694;BME280;21812;55.536;37.664;2024-02-28T02:28:12;100804.19;;;5.18;37.87
35694;BME280;21812;55.536;37.664;2024-02-28T02:30:39;100812.53;;;4.48;38.40
35694;BME280;21812;55.536;37.664;2024-02-28T02:33:05;100831.69;;;3.84;38.67
35694;BME280;21812;55.536;37.664;2024-02-28T02:35:32;100823.41;;;3.78;44.10
35694;BME280;21812;55.536;37.664;2024-02-28T02:37:58;100815.22;;;3.58;40.76
35694;BME280;21812;55.536;37.664;2024-02-28T02:40:24;100808.88;;;4.06;43.88
35694;BME280;21812;55.536;37.664;2024-02-28T02:42:49;100809.97;;;4.58;45.25
35694;BME280;21812;55.536;37.664;2024-02-28T02:45:16;100807.41;;;4.68;39.65
35694;BME280;21812;55.536;37.664;2024-02-28T02:47:42;100808.59;;;4.75;41.35
35694;BME280;21812;55.536;37.664;2024-02-28T02:50:10;100803.50;;;4.51;37.20
35694;BME280;21812;55.536;37.664;2024-02-28T02:52:36;100780.59;;;4.73;45.10
35694;BME280;21812;55.536;37.664;2024-02-28T02:55:02;100798.00;;;5.28;44.93
35694;BME280;21812;55.536;37.664;2024-02-28T02:57:31;100786.94;;;5.65;42.64
35694;BME280;21812;55.536;37.664;2024-02-28T02:59:58;100793.59;;;5.91;37.23
35694;BME280;21812;55.536;37.664;2024-02-28T03:02:23;100783.75;;;5.20;35.52
35694;BME280;21812;55.536;37.664;2024-02-28T03:04:49;100788.44;;;3.51;37.72
35694;BME280;21812;55.536;37.664;2024-02-28T03:07:15;100794.56;;;3.05;40.35
35694;BME280;21812;55.536;37.664;2024-02-28T03:09:40;100799.50;;;2.74;39.98
35694;BME280;21812;55.536;37.664;2024-02-28T03:12:06;100785.66;;;2.23;42.23
35694;BME280;21812;55.536;37.664;2024-02-28T03:14:32;100818.03;;;2.25;41.63
35694;BME280;21812;55.536;37.664;2024-02-28T03:16:58;100805.03;;;2.34;40.94
35694;BME280;21812;55.536;37.664;2024-02-28T03:19:23;100810.91;;;2.14;41.50
35694;BME280;21812;55.536;37.664;2024-02-28T03:21:49;100807.53;;;2.36;41.85
35694;BME280;21812;55.536;37.664;2024-02-28T03:24:15;100800.72;;;1.97;43.82
35694;BME280;21812;55.536;37.664;2024-02-28T03:26:40;100809.88;;;1.78;42.54
35694;BME280;21812;55.536;37.664;2024-02-28T03:29:06;100811.97;;;1.22;43.37
35694;BME280;21812;55.536;37.664;2024-02-28T03:31:32;100811.97;;;1.22;44.74
35694;BME280;21812;55.536;37.664;2024-02-28T03:33:57;100800.59;;;1.21;43.90
35694;BME280;21812;55.536;37.664;2024-02-28T03:36:23;100808.22;;;1.64;44.47
35694;BME280;21812;55.536;37.664;2024-02-28T03:38:49;100810.22;;;1.48;42.67
35694;BME280;21812;55.536;37.664;2024-02-28T03:41:14;100797.63;;;0.33;43.91
35694;BME280;21812;55.536;37.664;2024-02-28T03:43:40;100812.69;;;-0.41;45.96
35694;BME280;21812;55.536;37.664;2024-02-28T03:46:06;100813.59;;;-1.01;47.25
35694;BME280;21812;55.536;37.664;2024-02-28T03:48:32;100808.59;;;-1.36;48.59
35694;BME280;21812;55.536;37.664;2024-02-28T03:50:57;100817.41;;;-1.69;49.30
35694;BME280;21812;55.536;37.664;2024-02-28T03:53:23;100822.78;;;-2.04;50.42
35694;BME280;21812;55.536;37.664;2024-02-28T03:55:50;100769.09;;;-2.60;51.40
35694;BME280;21812;55.536;37.664;2024-02-28T03:58:15;100809.38;;;-2.47;51.79
35694;BME280;21812;55.536;37.664;2024-02-28T04:00:41;100820.16;;;-2.53;51.87
35694;BME280;21812;55.536;37.664;2024-02-28T04:03:10;100818.91;;;-2.63;52.28
35694;BME280;21812;55.536;37.664;2024-02-28T04:05:35;100815.84;;;-2.71;52.63
35694;BME280;21812;55.536;37.664;2024-02-28T04:08:01;100822.50;;;-2.82;53.15
35694;BME280;21812;55.536;37.664;2024-02-28T04:10:27;100813.72;;;-2.81;52.97
35694;BME280;21812;55.536;37.664;2024-02-28T04:12:52;100799.94;;;-3.02;53.55
35694;BME280;21812;55.536;37.664;2024-02-28T04:15:18;100815.00;;;-3.07;54.26
35694;BME280;21812;55.536;37.664;2024-02-28T04:17:44;100808.03;;;-3.06;54.34
35694;BME280;21812;55.536;37.664;2024-02-28T04:20:11;100819.84;;;-3.17;54.69
35694;BME280;21812;55.536;37.664;2024-02-28T04:22:37;100823.84;;;-3.27;55.08
35694;BME280;21812;55.536;37.664;2024-02-28T04:25:04;100818.59;;;-3.44;55.08
35694;BME280;21812;55.536;37.664;2024-02-28T04:27:30;100831.47;;;-3.41;55.26
35694;BME280;21812;55.536;37.664;2024-02-28T04:29:56;100830.22;;;-3.51;55.95
35694;BME280;21812;55.536;37.664;2024-02-28T04:32:22;100822.06;;;-3.63;56.42
35694;BME280;21812;55.536;37.664;2024-02-28T04:34:47;100840.09;;;-3.58;56.41
35694;BME280;21812;55.536;37.664;2024-02-28T04:37:13;100817.97;;;-3.68;56.50
35694;BME280;21812;55.536;37.664;2024-02-28T04:39:40;100829.41;;;-3.71;56.40
35694;BME280;21812;55.536;37.664;2024-02-28T04:42:06;100822.00;;;-3.80;56.55
35694;BME280;21812;55.536;37.664;2024-02-28T04:44:31;100831.38;;;-3.76;56.99
35694;BME280;21812;55.536;37.664;2024-02-28T04:46:57;100821.06;;;-3.79;57.47
35694;BME280;21812;55.536;37.664;2024-02-28T04:49:23;100826.88;;;-3.72;57.62
35694;BME280;21812;55.536;37.664;2024-02-28T04:51:48;100827.56;;;-3.69;57.17
35694;BME280;21812;55.536;37.664;2024-02-28T04:54:14;100840.97;;;-3.58;56.86
35694;BME280;21812;55.536;37.664;2024-02-28T04:56:41;100846.03;;;-3.55;57.25
35694;BME280;21812;55.536;37.664;2024-02-28T04:59:13;100844.06;;;-3.49;57.08
35694;BME280;21812;55.536;37.664;2024-02-28T05:01:39;100818.19;;;-3.54;57.11
35694;BME280;21812;55.536;37.664;2024-02-28T05:04:07;100847.47;;;-3.30;56.90
35694;BME280;21812;55.536;37.664;2024-02-28T05:06:34;100840.56;;;-3.31;56.94
35694;BME280;21812;55.536;37.664;2024-02-28T05:09:00;100837.88;;;-3.29;57.05
35694;BME280;21812;55.536;37.664;2024-02-28T05:11:26;100840.34;;;-3.26;56.93
35694;BME280;21812;55.536;37.664;2024-02-28T05:13:51;100809.03;;;-3.45;57.20
35694;BME280;21812;55.536;37.664;2024-02-28T05:16:17;100845.63;;;-3.28;57.42
35694;BME280;21812;55.536;37.664;2024-02-28T05:18:46;100850.34;;;-3.17;57.68
35694;BME280;21812;55.536;37.664;2024-02-28T05:21:12;100834.97;;;-3.23;57.27
35694;BME280;21812;55.536;37.664;2024-02-28T05:23:38;100833.75;;;-3.16;56.90
35694;BME280;21812;55.536;37.664;2024-02-28T05:26:03;100838.38;;;-3.04;57.18
35694;BME280;21812;55.536;37.664;2024-02-28T05:28:31;100841.84;;;-2.86;56.77
35694;BME280;21812;55.536;37.664;2024-02-28T05:30:58;100844.63;;;-2.89;56.73
35694;BME280;21812;55.536;37.664;2024-02-28T05:33:25;100837.16;;;-2.79;56.65
35694;BME280;21812;55.536;37.664;2024-02-28T05:35:51;100819.63;;;-2.77;56.75
35694;BME280;21812;55.536;37.664;2024-02-28T05:38:16;100824.31;;;-2.66;56.18
35694;BME280;21812;55.536;37.664;2024-02-28T05:40:42;100799.47;;;-2.75;55.93
35694;BME280;21812;55.536;37.664;2024-02-28T05:43:08;100835.84;;;-2.53;56.22
35694;BME280;21812;55.536;37.664;2024-02-28T05:45:33;100829.53;;;-2.49;56.10
35694;BME280;21812;55.536;37.664;2024-02-28T05:47:59;100820.53;;;-2.43;56.05
35694;BME280;21812;55.536;37.664;2024-02-28T05:50:25;100812.59;;;-2.42;55.77
35694;BME280;21812;55.536;37.664;2024-02-28T05:52:50;100815.72;;;-2.35;56.09
35694;BME280;21812;55.536;37.664;2024-02-28T05:55:17;100808.31;;;-2.27;55.42
35694;BME280;21812;55.536;37.664;2024-02-28T05:57:43;100844.25;;;-1.97;55.44
35694;BME280;21812;55.536;37.664;2024-02-28T06:00:09;100830.75;;;-1.89;55.28
35694;BME280;21812;55.536;37.664;2024-02-28T06:02:39;100799.75;;;-1.97;55.13
35694;BME280;21812;55.536;37.664;2024-02-28T06:05:05;100841.41;;;-1.61;54.59
35694;BME280;21812;55.536;37.664;2024-02-28T06:07:31;100822.81;;;-1.72;54.44
35694;BME280;21812;55.536;37.664;2024-02-28T06:09:57;100821.97;;;-1.41;60.95
35694;BME280;21812;55.536;37.664;2024-02-28T06:12:23;100816.97;;;0.17;64.03
35694;BME280;21812;55.536;37.664;2024-02-28T06:14:49;100820.94;;;1.58;66.22
35694;BME280;21812;55.536;37.664;2024-02-28T06:17:15;100803.09;;;2.73;61.52
35694;BME280;21812;55.536;37.664;2024-02-28T06:19:40;100787.94;;;3.46;67.48
35694;BME280;21812;55.536;37.664;2024-02-28T06:22:06;100813.44;;;3.81;63.02
35694;BME280;21812;55.536;37.664;2024-02-28T06:24:35;100818.69;;;3.47;50.69
35694;BME280;21812;55.536;37.664;2024-02-28T06:27:01;100818.34;;;4.31;69.90
35694;BME280;21812;55.536;37.664;2024-02-28T06:29:27;100813.06;;;4.75;71.32
35694;BME280;21812;55.536;37.664;2024-02-28T06:31:53;100812.78;;;5.10;65.55
35694;BME280;21812;55.536;37.664;2024-02-28T06:34:21;100804.56;;;4.92;57.35
35694;BME280;21812;55.536;37.664;2024-02-28T06:36:48;100810.63;;;5.04;69.90
35694;BME280;21812;55.536;37.664;2024-02-28T06:39:13;100802.41;;;5.39;69.45
35694;BME280;21812;55.536;37.664;2024-02-28T06:41:40;100803.75;;;5.13;54.37
35694;BME280;21812;55.536;37.664;2024-02-28T06:44:06;100809.81;;;5.03;52.85
35694;BME280;21812;55.536;37.664;2024-02-28T06:46:33;100813.88;;;5.07;50.75
35694;BME280;21812;55.536;37.664;2024-02-28T06:48:58;100820.16;;;4.19;46.17
35694;BME280;21812;55.536;37.664;2024-02-28T06:51:24;100813.88;;;4.31;52.03
35694;BME280;21812;55.536;37.664;2024-02-28T06:53:50;100789.75;;;4.14;57.81
35694;BME280;21812;55.536;37.664;2024-02-28T06:56:15;100821.59;;;3.89;55.70
35694;BME280;21812;55.536;37.664;2024-02-28T06:58:41;100806.69;;;3.55;49.22
35694;BME280;21812;55.536;37.664;2024-02-28T07:01:07;100808.84;;;3.61;48.68
35694;BME280;21812;55.536;37.664;2024-02-28T07:03:33;100824.25;;;3.89;57.27
35694;BME280;21812;55.536;37.664;2024-02-28T07:05:58;100807.41;;;4.13;55.82
35694;BME280;21812;55.536;37.664;2024-02-28T07:08:24;100817.63;;;3.84;49.60
35694;BME280;21812;55.536;37.664;2024-02-28T07:10:50;100812.69;;;4.24;64.47
35694;BME280;21812;55.536;37.664;2024-02-28T07:13:22;100826.22;;;4.97;54.67
35694;BME280;21812;55.536;37.664;2024-02-28T07:15:48;100822.47;;;5.00;48.24
35694;BME280;21812;55.536;37.664;2024-02-28T07:18:14;100824.03;;;4.04;45.77
35694;BME280;21812;55.536;37.664;2024-02-28T07:20:40;100820.50;;;3.11;46.80
35694;BME280;21812;55.536;37.664;2024-02-28T07:23:06;100831.69;;;2.43;47.73
35694;BME280;21812;55.536;37.664;2024-02-28T07:25:31;100825.25;;;2.10;48.81
35694;BME280;21812;55.536;37.664;2024-02-28T07:27:58;100841.50;;;2.04;49.36
35694;BME280;21812;55.536;37.664;2024-02-28T07:30:28;100844.44;;;1.99;49.30
35694;BME280;21812;55.536;37.664;2024-02-28T07:32:54;100822.53;;;1.73;49.46
35694;BME280;21812;55.536;37.664;2024-02-28T07:35:20;100810.72;;;1.40;50.04
35694;BME280;21812;55.536;37.664;2024-02-28T07:37:47;100844.44;;;1.61;50.03
35694;BME280;21812;55.536;37.664;2024-02-28T07:40:12;100850.78;;;1.58;50.16
35694;BME280;21812;55.536;37.664;2024-02-28T07:42:38;100839.59;;;1.54;50.24
35694;BME280;21812;55.536;37.664;2024-02-28T07:45:04;100857.50;;;1.49;50.39
35694;BME280;21812;55.536;37.664;2024-02-28T07:47:30;100834.22;;;1.56;50.32
35694;BME280;21812;55.536;37.664;2024-02-28T07:49:56;100819.38;;;1.55;50.21
35694;BME280;21812;55.536;37.664;2024-02-28T07:52:22;100825.91;;;1.49;50.63
35694;BME280;21812;55.536;37.664;2024-02-28T07:54:48;100837.16;;;1.51;50.86
35694;BME280;21812;55.536;37.664;2024-02-28T07:57:14;100839.19;;;1.61;51.04
35694;BME280;21812;55.536;37.664;2024-02-28T07:59:41;100838.75;;;1.67;50.67
35694;BME280;21812;55.536;37.664;2024-02-28T08:02:07;100819.38;;;1.68;50.78
35694;BME280;21812;55.536;37.664;2024-02-28T08:04:33;100826.09;;;1.46;51.11
35694;BME280;21812;55.536;37.664;2024-02-28T08:07:00;100837.41;;;1.74;51.06
35694;BME280;21812;55.536;37.664;2024-02-28T08:09:25;100833.91;;;1.86;50.95
35694;BME280;21812;55.536;37.664;2024-02-28T08:11:51;100831.59;;;1.94;50.52
35694;BME280;21812;55.536;37.664;2024-02-28T08:14:17;100838.22;;;2.00;50.83
35694;BME280;21812;55.536;37.664;2024-02-28T08:16:43;100837.25;;;1.88;50.93
35694;BME280;21812;55.536;37.664;2024-02-28T08:19:09;100826.72;;;1.88;50.93
35694;BME280;21812;55.536;37.664;2024-02-28T08:21:34;100826.53;;;1.91;51.01
35694;BME280;21812;55.536;37.664;2024-02-28T08:24:00;100803.56;;;1.81;50.96
35694;BME280;21812;55.536;37.664;2024-02-28T08:26:33;100832.41;;;1.95;50.72
35694;BME280;21812;55.536;37.664;2024-02-28T08:28:58;100833.06;;;1.99;51.04
35694;BME280;21812;55.536;37.664;2024-02-28T08:31:24;100823.78;;;1.93;51.23
35694;BME280;21812;55.536;37.664;2024-02-28T08:33:50;100839.69;;;2.04;51.41
35694;BME280;21812;55.536;37.664;2024-02-28T08:36:15;100820.19;;;2.07;51.64
35694;BME280;21812;55.536;37.664;2024-02-28T08:38:41;100825.94;;;2.25;51.34
35694;BME280;21812;55.536;37.664;2024-02-28T08:41:07;100823.50;;;2.34;51.00
35694;BME280;21812;55.536;37.664;2024-02-28T08:43:37;100791.56;;;2.26;50.69
35694;BME280;21812;55.536;37.664;2024-02-28T08:46:03;100815.66;;;2.46;50.68
35694;BME280;21812;55.536;37.664;2024-02-28T08:48:29;100816.00;;;2.65;50.46
35694;BME280;21812;55.536;37.664;2024-02-28T08:50:55;100807.47;;;2.62;50.51
35694;BME280;21812;55.536;37.664;2024-02-28T08:53:20;100814.91;;;2.68;50.23
35694;BME280;21812;55.536;37.664;2024-02-28T08:55:46;100810.78;;;2.52;51.05
35694;BME280;21812;55.536;37.664;2024-02-28T08:58:12;100813.38;;;2.65;50.65
35694;BME280;21812;55.536;37.664;2024-02-28T09:00:37;100842.38;;;2.65;50.76
35694;BME280;21812;55.536;37.664;2024-02-28T09:03:04;100809.88;;;2.65;50.36
35694;BME280;21812;55.536;37.664;2024-02-28T09:05:30;100805.81;;;2.72;50.40
35694;BME280;21812;55.536;37.664;2024-02-28T09:07:55;100800.38;;;2.86;50.59
35694;BME280;21812;55.536;37.664;2024-02-28T09:10:23;100799.13;;;3.03;50.47
35694;BME280;21812;55.536;37.664;2024-02-28T09:12:52;100788.56;;;3.03;50.28
35694;BME280;21812;55.536;37.664;2024-02-28T09:15:18;100799.03;;;3.05;50.12
35694;BME280;21812;55.536;37.664;2024-02-28T09:17:44;100787.03;;;3.12;50.09
35694;BME280;21812;55.536;37.664;2024-02-28T09:20:10;100793.31;;;3.22;49.99
35694;BME280;21812;55.536;37.664;2024-02-28T09:22:36;100793.44;;;3.32;49.64
35694;BME280;21812;55.536;37.664;2024-02-28T09:25:02;100782.41;;;3.38;49.51
35694;BME280;21812;55.536;37.664;2024-02-28T09:27:30;100780.28;;;3.55;48.97
35694;BME280;21812;55.536;37.664;2024-02-28T09:29:56;100792.88;;;3.51;48.78
35694;BME280;21812;55.536;37.664;2024-02-28T09:32:22;100785.31;;;3.69;49.05
35694;BME280;21812;55.536;37.664;2024-02-28T09:34:48;100783.66;;;3.79;48.41
35694;BME280;21812;55.536;37.664;2024-02-28T09:37:14;100773.53;;;3.84;48.42
35694;BME280;21812;55.536;37.664;2024-02-28T09:39:40;100779.69;;;3.96;48.66
35694;BME280;21812;55.536;37.664;2024-02-28T09:42:07;100768.00;;;4.10;48.27
35694;BME280;21812;55.536;37.664;2024-02-28T09:44:37;100769.91;;;4.30;48.15
35694;BME280;21812;55.536;37.664;2024-02-28T09:47:03;100769.41;;;4.37;48.14
35694;BME280;21812;55.536;37.664;2024-02-28T09:49:31;100743.25;;;4.11;47.79
35694;BME280;21812;55.536;37.664;2024-02-28T09:51:59;100767.56;;;4.48;47.85
35694;BME280;21812;55.536;37.664;2024-02-28T09:54:25;100765.94;;;4.68;47.79
35694;BME280;21812;55.536;37.664;2024-02-28T09:56:51;100771.63;;;4.85;47.34
35694;BME280;21812;55.536;37.664;2024-02-28T09:59:20;100769.44;;;4.90;47.86
35694;BME280;21812;55.536;37.664;2024-02-28T10:01:56;100771.66;;;4.74;47.32
35694;BME280;21812;55.536;37.664;2024-02-28T10:04:26;100764.03;;;4.59;47.47
35694;BME280;21812;55.536;37.664;2024-02-28T10:06:53;100755.88;;;4.51;47.40
35694;BME280;21812;55.536;37.664;2024-02-28T10:09:18;100741.53;;;4.33;47.44
35694;BME280;21812;55.536;37.664;2024-02-28T10:11:44;100774.50;;;4.61;48.80
35694;BME280;21812;55.536;37.664;2024-02-28T10:14:12;100766.47;;;4.51;48.90
35694;BME280;21812;55.536;37.664;2024-02-28T10:16:42;100772.81;;;4.60;48.93
35694;BME280;21812;55.536;37.664;2024-02-28T10:19:08;100770.22;;;4.81;48.06
35694;BME280;21812;55.536;37.664;2024-02-28T10:21:33;100778.16;;;5.02;47.40
35694;BME280;21812;55.536;37.664;2024-02-28T10:23:59;100772.56;;;5.16;48.08
35694;BME280;21812;55.536;37.664;2024-02-28T10:26:25;100763.75;;;5.37;48.24
35694;BME280;21812;55.536;37.664;2024-02-28T10:28:51;100753.28;;;5.56;47.35
35694;BME280;21812;55.536;37.664;2024-02-28T10:31:17;100761.69;;;5.71;46.62
35694;BME280;21812;55.536;37.664;2024-02-28T10:33:43;100756.81;;;6.07;46.41
35694;BME280;21812;55.536;37.664;2024-02-28T10:36:09;100749.91;;;6.35;45.08
35694;BME280;21812;55.536;37.664;2024-02-28T10:38:35;100750.34;;;6.50;43.45
35694;BME280;21812;55.536;37.664;2024-02-28T10:41:03;100755.66;;;6.40;43.51
35694;BME280;21812;55.536;37.664;2024-02-28T10:43:30;100758.44;;;6.49;43.26
35694;BME280;21812;55.536;37.664;2024-02-28T10:45:59;100749.34;;;6.32;43.82
35694;BME280;21812;55.536;37.664;2024-02-28T10:48:26;100758.06;;;6.03;44.88
35694;BME280;21812;55.536;37.664;2024-02-28T10:50:52;100758.91;;;5.73;45.68
35694;BME280;21812;55.536;37.664;2024-02-28T10:53:37;100754.91;;;5.88;44.46
35694;BME280;21812;55.536;37.664;2024-02-28T10:56:06;100767.72;;;5.73;45.92
35694;BME280;21812;55.536;37.664;2024-02-28T10:58:35;100749.16;;;5.73;45.51
35694;BME280;21812;55.536;37.664;2024-02-28T11:01:05;100737.09;;;5.59;45.20
35694;BME280;21812;55.536;37.664;2024-02-28T11:03:31;100747.97;;;5.56;45.85
35694;BME280;21812;55.536;37.664;2024-02-28T11:05:57;100743.38;;;5.58;46.00
35694;BME280;21812;55.536;37.664;2024-02-28T11:08:24;100747.13;;;5.56;46.75
35694;BME280;21812;55.536;37.664;2024-02-28T11:11:03;100678.53;;;5.22;46.53
35694;BME280;21812;55.536;37.664;2024-02-28T11:13:30;100750.22;;;5.61;45.93
35694;BME280;21812;55.536;37.664;2024-02-28T11:16:09;100746.94;;;5.78;46.41
35694;BME280;21812;55.536;37.664;2024-02-28T11:18:35;100738.69;;;6.12;45.88
35694;BME280;21812;55.536;37.664;2024-02-28T11:21:00;100732.31;;;6.34;44.68
35694;BME280;21812;55.536;37.664;2024-02-28T11:23:36;100737.91;;;6.60;44.63
35694;BME280;21812;55.536;37.664;2024-02-28T11:26:03;100726.50;;;7.36;43.42
35694;BME280;21812;55.536;37.664;2024-02-28T11:28:29;100717.66;;;8.01;41.88
35694;BME280;21812;55.536;37.664;2024-02-28T11:30:54;100728.00;;;8.68;40.44
35694;BME280;21812;55.536;37.664;2024-02-28T11:33:20;100720.16;;;9.63;39.02
35694;BME280;21812;55.536;37.664;2024-02-28T11:35:56;100691.59;;;10.40;37.88
35694;BME280;21812;55.536;37.664;2024-02-28T11:38:26;100710.22;;;11.30;36.42
35694;BME280;21812;55.536;37.664;2024-02-28T11:40:53;100700.97;;;11.97;34.23
35694;BME280;21812;55.536;37.664;2024-02-28T11:43:19;100692.97;;;12.20;33.04
35694;BME280;21812;55.536;37.664;2024-02-28T11:45:45;100695.03;;;11.79;33.72
35694;BME280;21812;55.536;37.664;2024-02-28T11:48:16;100705.03;;;11.85;33.90
35694;BME280;21812;55.536;37.664;2024-02-28T11:50:42;100694.84;;;11.41;33.79
35694;BME280;21812;55.536;37.664;2024-02-28T11:53:08;100700.94;;;10.69;35.35
35694;BME280;21812;55.536;37.664;2024-02-28T11:55:34;100698.00;;;10.13;36.13
35694;BME280;21812;55.536;37.664;2024-02-28T11:58:01;100693.88;;;9.33;37.65
35694;BME280;21812;55.536;37.664;2024-02-28T12:00:27;100688.69;;;10.25;37.45
35694;BME280;21812;55.536;37.664;2024-02-28T12:03:04;100657.03;;;10.71;35.42
35694;BME280;21812;55.536;37.664;2024-02-28T12:05:31;100674.88;;;10.95;35.63
35694;BME280;21812;55.536;37.664;2024-02-28T12:07:57;100679.69;;;11.64;35.22
35694;BME280;21812;55.536;37.664;2024-02-28T12:10:24;100689.47;;;12.20;33.22
35694;BME280;21812;55.536;37.664;2024-02-28T12:12:50;100679.84;;;12.80;32.83
35694;BME280;21812;55.536;37.664;2024-02-28T12:15:16;100693.69;;;12.45;32.57
35694;BME280;21812;55.536;37.664;2024-02-28T12:17:42;100685.31;;;12.40;32.25
35694;BME280;21812;55.536;37.664;2024-02-28T12:20:08;100684.75;;;12.30;33.18
35694;BME280;21812;55.536;37.664;2024-02-28T12:22:34;100680.34;;;12.75;32.36
35694;BME280;21812;55.536;37.664;2024-02-28T12:25:00;100672.00;;;12.55;32.69
35694;BME280;21812;55.536;37.664;2024-02-28T12:27:30;100674.38;;;12.27;32.60
35694;BME280;21812;55.536;37.664;2024-02-28T12:29:56;100680.28;;;11.91;33.69
35694;BME280;21812;55.536;37.664;2024-02-28T12:32:22;100673.97;;;11.76;33.69
35694;BME280;21812;55.536;37.664;2024-02-28T12:34:48;100664.94;;;11.29;34.05
35694;BME280;21812;55.536;37.664;2024-02-28T12:37:13;100669.69;;;10.94;34.61
35694;BME280;21812;55.536;37.664;2024-02-28T12:39:39;100654.69;;;10.93;34.44
35694;BME280;21812;55.536;37.664;2024-02-28T12:42:06;100672.78;;;11.39;34.10
35694;BME280;21812;55.536;37.664;2024-02-28T12:44:32;100657.03;;;10.71;34.25